Time;durP1;ratioP1;P1;durP2;ratioP2;P2;SDS_P1;SDS_P2;PMS_P1;PMS_P2;Temp;Humidity;BMP_temperature;BMP_pressure;BME280_temperature;BME280_humidity;BME280_pressure;Samples;Min_cycle;Max_cycle;Signal;HPM_P1;HPM_P2
2021/06/29 00:00:18;;;;;;;15.25;12.57;;;;;;;23.27;84.65;100583.72;5072232;28;20450;-73
2021/06/29 00:02:43;;;;;;;15.93;11.68;;;;;;;23.06;84.58;100538.31;5060390;28;20066;-69
2021/06/29 00:05:09;;;;;;;17.65;12.20;;;;;;;23.29;84.45;100574.03;5072233;28;20397;-70
2021/06/29 00:07:34;;;;;;;18.50;11.70;;;;;;;23.15;84.78;100573.31;5071765;28;20024;-70
2021/06/29 00:10:00;;;;;;;17.52;12.60;;;;;;;22.94;84.90;100534.09;5072160;28;20021;-73
2021/06/29 00:12:37;;;;;;;15.35;12.32;;;;;;;23.01;85.55;100566.47;5071796;28;20056;-73
2021/06/29 00:15:04;;;;;;;16.10;11.65;;;;;;;23.08;84.67;100557.59;5071867;28;20119;-77
2021/06/29 00:17:29;;;;;;;19.08;12.13;;;;;;;23.07;84.39;100568.16;5071910;28;20464;-72
2021/06/29 00:20:39;;;;;;;13.50;12.05;;;;;;;22.81;84.99;100556.19;5072396;28;20116;-70
2021/06/29 00:23:04;;;;;;;14.65;12.00;;;;;;;22.75;85.32;100558.91;4989965;28;20038;-70
2021/06/29 00:25:42;;;;;;;16.95;13.50;;;;;;;22.39;85.44;100516.34;4990276;28;20121;-72
2021/06/29 00:28:07;;;;;;;16.40;12.65;;;;;;;22.51;85.87;100562.69;4974363;28;20031;-76
2021/06/29 00:30:33;;;;;;;19.20;13.15;;;;;;;22.53;86.45;100568.78;4990778;28;20543;-72
2021/06/29 00:32:59;;;;;;;18.05;13.23;;;;;;;22.43;86.61;100566.28;4990130;28;20117;-70
2021/06/29 00:35:24;;;;;;;16.20;13.23;;;;;;;22.40;86.22;100566.28;4990496;28;20419;-69
2021/06/29 00:37:50;;;;;;;16.58;13.45;;;;;;;22.10;86.35;100523.59;4989773;28;20085;-69
2021/06/29 00:40:16;;;;;;;16.10;13.15;;;;;;;22.27;86.68;100555.00;4990408;28;20093;-74
2021/06/29 00:42:42;;;;;;;14.95;13.43;;;;;;;22.33;86.40;100559.34;4989469;28;20154;-69
2021/06/29 00:45:09;;;;;;;14.88;13.32;;;;;;;22.39;86.20;100558.44;4989875;28;20198;-70
2021/06/29 00:47:36;;;;;;;17.10;13.75;;;;;;;22.36;86.59;100563.69;4989961;28;20037;-74
2021/06/29 00:50:02;;;;;;;17.25;13.75;;;;;;;22.31;86.28;100555.84;4989673;28;20058;-75
2021/06/29 00:52:28;;;;;;;16.38;13.15;;;;;;;22.35;86.62;100568.06;4989672;28;20038;-73
2021/06/29 00:54:54;;;;;;;18.33;13.15;;;;;;;22.10;86.94;100509.59;4989548;28;20084;-69
2021/06/29 00:57:19;;;;;;;15.70;12.43;;;;;;;22.18;87.63;100560.38;4989956;28;20034;-70
2021/06/29 00:59:45;;;;;;;15.95;13.00;;;;;;;22.29;87.18;100552.34;5035932;28;20041;-69
2021/06/29 01:02:11;;;;;;;16.05;12.70;;;;;;;22.20;88.17;100562.97;5071297;28;20100;-72
2021/06/29 01:04:38;;;;;;;16.35;13.50;;;;;;;22.22;87.63;100553.28;5071494;28;20082;-72
2021/06/29 01:07:05;;;;;;;14.18;12.27;;;;;;;22.11;87.26;100516.59;5070981;28;20094;-72
2021/06/29 01:09:32;;;;;;;15.20;12.70;;;;;;;22.32;87.50;100552.34;5071597;28;20493;-71
2021/06/29 01:11:57;;;;;;;16.50;12.35;;;;;;;22.27;86.90;100512.06;5052049;28;20126;-70
2021/06/29 01:14:23;;;;;;;19.17;12.85;;;;;;;22.72;85.73;100546.66;5070940;28;20105;-69
2021/06/29 01:16:48;;;;;;;16.90;13.45;;;;;;;22.60;84.53;100513.47;5070901;28;20039;-73
2021/06/29 01:19:19;;;;;;;14.57;12.02;;;;;;;22.80;84.35;100517.59;5070140;28;20023;-75
2021/06/29 01:21:46;;;;;;;18.88;12.45;;;;;;;23.13;84.03;100544.38;5070784;28;20674;-73
2021/06/29 01:24:15;;;;;;;17.48;12.50;;;;;;;23.26;83.04;100534.56;5070968;28;20044;-71
2021/06/29 01:27:01;;;;;;;14.27;12.10;;;;;;;23.29;82.75;100547.72;5070873;28;20025;-70
2021/06/29 01:32:18;;;;;;;13.65;11.40;;;;;;;23.00;83.57;100542.78;5028899;28;20164;-68
2021/06/29 01:34:45;;;;;;;14.98;12.82;;;;;;;22.92;83.73;100545.53;5028370;28;20092;-67
2021/06/29 01:37:11;;;;;;;17.30;12.77;;;;;;;22.72;84.56;100545.78;5028255;28;20038;-67
2021/06/29 01:39:37;;;;;;;16.92;12.63;;;;;;;22.69;85.12;100549.34;5028525;28;20068;-73
2021/06/29 01:42:03;;;;;;;18.77;12.75;;;;;;;22.50;86.16;100553.06;5028834;28;20038;-72
2021/06/29 01:44:34;;;;;;;15.27;13.32;;;;;;;22.53;86.17;100561.78;5028260;28;20049;-69
2021/06/29 01:47:03;;;;;;;14.73;13.00;;;;;;;22.34;86.15;100534.75;5028845;28;20077;-69
2021/06/29 01:49:29;;;;;;;18.85;13.25;;;;;;;22.20;87.27;100537.53;5028665;28;20447;-69
2021/06/29 01:51:55;;;;;;;16.67;13.60;;;;;;;22.24;87.16;100565.56;5028451;28;20415;-70
2021/06/29 01:54:22;;;;;;;19.38;13.52;;;;;;;22.11;86.87;100558.69;5028987;28;20033;-69
2021/06/29 01:56:51;;;;;;;19.75;13.45;;;;;;;22.05;86.72;100570.09;5043906;28;20117;-68
2021/06/29 01:59:20;;;;;;;23.20;14.82;;;;;;;21.98;86.44;100555.28;5034121;28;20518;-69
2021/06/29 02:01:45;;;;;;;19.77;13.05;;;;;;;22.03;85.67;100556.13;5028526;28;20515;-68
2021/06/29 02:04:11;;;;;;;16.85;13.30;;;;;;;21.97;85.73;100567.56;5028827;28;20131;-69
2021/06/29 02:06:38;;;;;;;17.35;13.57;;;;;;;21.75;86.85;100577.34;5028706;28;20033;-69
2021/06/29 02:09:08;;;;;;;17.00;13.52;;;;;;;21.85;86.55;100572.06;5046910;28;20044;-69
2021/06/29 02:11:39;;;;;;;18.25;13.25;;;;;;;21.73;86.63;100573.91;5070445;28;20501;-69
2021/06/29 02:14:05;;;;;;;17.77;13.00;;;;;;;21.63;86.85;100562.56;5070622;28;20036;-68
2021/06/29 02:16:31;;;;;;;18.90;14.25;;;;;;;21.68;87.06;100572.16;5070549;28;20107;-69
2021/06/29 02:18:56;;;;;;;19.23;12.50;;;;;;;21.59;86.99;100575.72;5035345;28;20561;-70
2021/06/29 02:21:23;;;;;;;18.58;12.50;;;;;;;21.69;87.08;100572.16;5071070;28;20509;-69
2021/06/29 02:23:48;;;;;;;19.60;13.40;;;;;;;21.74;86.66;100564.25;5070471;28;20020;-69
2021/06/29 02:26:14;;;;;;;17.65;13.23;;;;;;;21.77;86.34;100559.84;5070494;28;20465;-69
2021/06/29 02:28:39;;;;;;;18.73;13.48;;;;;;;21.88;86.15;100559.75;5070261;28;20036;-68
2021/06/29 02:31:05;;;;;;;16.13;12.50;;;;;;;21.95;85.35;100563.19;5056017;28;20398;-68
2021/06/29 02:33:30;;;;;;;19.27;12.57;;;;;;;21.62;86.18;100559.94;5074167;28;20103;-69
2021/06/29 02:35:56;;;;;;;17.98;13.40;;;;;;;21.73;86.21;100560.75;5074228;28;20121;-69
2021/06/29 02:38:26;;;;;;;15.93;13.23;;;;;;;21.67;86.62;100562.53;5074118;28;20024;-69
2021/06/29 02:40:51;;;;;;;;;;;;;;;21.61;86.71;100571.34;5073751;28;20103;-69
2021/06/29 02:43:16;;;;;;;18.00;12.98;;;;;;;21.68;86.66;100572.16;5073657;28;20102;-68
2021/06/29 02:45:43;;;;;;;16.90;12.93;;;;;;;21.57;86.99;100570.50;5074065;28;20110;-68
2021/06/29 02:48:10;;;;;;;18.85;13.27;;;;;;;21.49;87.25;100565.25;5073883;28;20036;-69
2021/06/29 02:50:35;;;;;;;22.35;14.25;;;;;;;21.59;86.94;100578.38;5073785;28;20031;-68
2021/06/29 02:53:01;;;;;;;16.25;14.13;;;;;;;21.09;86.53;100464.88;5073764;28;20025;-68
2021/06/29 02:55:26;;;;;;;17.83;14.35;;;;;;;21.45;86.17;100529.38;5073189;28;20482;-68
2021/06/29 02:57:52;;;;;;;20.88;14.20;;;;;;;21.75;86.07;100581.75;5073516;28;20028;-66
2021/06/29 03:00:19;;;;;;;22.77;14.05;;;;;;;21.60;85.91;100552.06;5072447;28;20021;-65
2021/06/29 03:02:45;;;;;;;17.98;13.45;;;;;;;21.65;86.25;100565.19;5072919;28;20035;-66
2021/06/29 03:05:12;;;;;;;15.68;13.07;;;;;;;21.77;86.00;100558.94;5073459;28;20021;-66
2021/06/29 03:07:37;;;;;;;16.58;13.73;;;;;;;21.86;85.36;100571.13;5073434;28;20032;-66
2021/06/29 03:10:05;;;;;;;18.50;13.85;;;;;;;21.81;86.06;100572.06;5073222;28;20078;-69
2021/06/29 03:12:32;;;;;;;19.95;14.20;;;;;;;21.86;85.65;100577.28;5073892;28;20032;-69
2021/06/29 03:14:59;;;;;;;16.73;13.73;;;;;;;21.51;86.29;100525.84;5073193;28;20501;-67
2021/06/29 03:17:25;;;;;;;16.40;14.13;;;;;;;21.75;86.66;100569.47;5073674;28;20039;-66
2021/06/29 03:19:51;;;;;;;19.00;14.05;;;;;;;21.83;86.41;100577.28;5073898;28;20103;-66
2021/06/29 03:22:17;;;;;;;21.55;13.45;;;;;;;21.82;86.63;100567.69;5073443;28;20028;-66
2021/06/29 03:24:42;;;;;;;22.25;13.63;;;;;;;21.75;86.47;100542.34;5073443;28;20039;-66
2021/06/29 03:27:08;;;;;;;23.13;14.88;;;;;;;21.86;86.57;100558.00;5073572;28;20112;-68
2021/06/29 03:29:35;;;;;;;21.40;14.65;;;;;;;22.05;86.03;100572.75;5073498;28;20025;-68
2021/06/29 03:32:01;;;;;;;20.05;13.88;;;;;;;22.07;86.09;100572.72;5073488;28;20028;-70
2021/06/29 03:34:26;;;;;;;20.95;14.52;;;;;;;22.04;85.96;100567.50;5073436;28;20490;-66
2021/06/29 03:36:52;;;;;;;18.23;14.43;;;;;;;21.93;86.25;100555.34;5055641;28;20127;-66
2021/06/29 03:39:18;;;;;;;19.27;14.90;;;;;;;21.97;86.64;100569.31;5072364;28;20505;-66
2021/06/29 03:41:45;;;;;;;17.00;15.18;;;;;;;22.02;86.25;100571.88;5072246;28;20086;-65
2021/06/29 03:44:13;;;;;;;18.33;14.13;;;;;;;22.03;86.05;100571.00;5073287;28;20430;-67
2021/06/29 03:46:39;;;;;;;16.33;13.93;;;;;;;21.86;86.47;100537.88;5072784;28;20027;-67
2021/06/29 03:49:05;;;;;;;23.52;14.73;;;;;;;22.01;87.10;100568.41;5072848;28;20025;-66
2021/06/29 03:51:30;;;;;;;20.08;15.32;;;;;;;21.93;86.59;100555.34;5072497;28;20028;-67
2021/06/29 03:53:56;;;;;;;20.67;15.63;;;;;;;21.83;86.78;100547.53;5072959;28;20145;-67
2021/06/29 03:56:28;;;;;;;18.83;15.73;;;;;;;21.81;88.73;100565.94;5072658;28;20489;-67
2021/06/29 03:58:56;;;;;;;22.23;16.08;;;;;;;21.79;89.11;100568.59;5072724;28;20024;-68
2021/06/29 04:01:22;;;;;;;20.08;16.48;;;;;;;21.63;90.92;100578.34;5072805;28;20028;-68
2021/06/29 04:03:48;;;;;;;21.90;16.45;;;;;;;21.86;89.83;100577.28;5072747;28;20028;-68
2021/06/29 04:06:15;;;;;;;21.23;16.48;;;;;;;22.00;88.49;100581.56;5072616;28;20029;-66
2021/06/29 04:08:41;;;;;;;19.10;15.65;;;;;;;21.86;89.30;100574.66;5072767;28;20017;-69
2021/06/29 04:11:06;;;;;;;28.40;18.10;;;;;;;21.72;90.75;100581.75;5072540;28;20036;-69
2021/06/29 04:13:32;;;;;;;28.00;21.25;;;;;;;21.89;89.99;100577.25;5072423;28;20017;-67
2021/06/29 04:15:57;;;;;;;25.98;19.13;;;;;;;22.08;89.52;100583.25;5072483;28;20025;-67
2021/06/29 04:18:23;;;;;;;26.33;18.75;;;;;;;22.20;88.27;100565.59;5070984;28;20478;-65
2021/06/29 04:20:48;;;;;;;30.45;21.65;;;;;;;22.40;87.91;100576.81;5072159;28;20033;-66
2021/06/29 04:23:15;;;;;;;32.13;22.38;;;;;;;22.55;86.74;100577.56;5072401;28;20486;-66
2021/06/29 04:25:40;;;;;;;31.42;22.90;;;;;;;22.68;85.68;100563.38;5072243;28;20060;-66
2021/06/29 04:28:06;;;;;;;31.40;22.88;;;;;;;22.81;85.50;100568.50;5072091;28;20094;-67
2021/06/29 04:30:31;;;;;;;31.88;21.90;;;;;;;22.90;84.76;100571.00;5072524;28;20413;-66
2021/06/29 04:32:57;;;;;;;31.13;22.15;;;;;;;23.00;84.45;100574.41;5071318;28;20035;-67
2021/06/29 04:35:23;;;;;;;26.30;21.20;;;;;;;22.87;84.91;100574.53;5072108;28;20037;-66
2021/06/29 04:37:48;;;;;;;26.05;19.23;;;;;;;22.92;85.34;100579.75;5072086;28;20508;-66
2021/06/29 04:40:14;;;;;;;25.67;19.73;;;;;;;22.87;86.84;100569.28;5072116;28;20033;-66
2021/06/29 04:42:41;;;;;;;24.55;19.05;;;;;;;22.81;86.31;100572.00;5071861;28;20032;-66
2021/06/29 04:45:07;;;;;;;27.45;19.35;;;;;;;22.89;86.29;100564.00;5071818;28;20051;-67
2021/06/29 04:47:39;;;;;;;26.55;18.52;;;;;;;23.01;85.83;100570.88;5071921;28;20028;-65
2021/06/29 04:50:05;;;;;;;23.05;19.17;;;;;;;23.15;85.80;100581.22;5071349;28;20473;-65
2021/06/29 04:52:32;;;;;;;25.23;19.40;;;;;;;23.20;85.44;100574.16;5035777;28;20044;-68
2021/06/29 04:54:58;;;;;;;22.13;19.58;;;;;;;23.35;85.22;100584.50;5071709;28;20024;-69
2021/06/29 04:57:24;;;;;;;26.60;22.10;;;;;;;23.41;85.21;100594.94;5071838;28;20085;-66
2021/06/29 04:59:49;;;;;;;30.50;20.60;;;;;;;23.51;84.65;100585.13;5071492;28;20059;-67
2021/06/29 05:02:15;;;;;;;34.33;21.65;;;;;;;23.55;85.06;100583.31;5071499;28;20020;-66
2021/06/29 05:04:40;;;;;;;34.75;22.45;;;;;;;23.26;86.21;100584.59;5071600;28;20510;-67
2021/06/29 05:07:06;;;;;;;37.58;23.33;;;;;;;23.30;85.94;100585.44;5053789;28;20028;-65
2021/06/29 05:09:31;;;;;;;31.30;21.77;;;;;;;23.42;85.52;100572.09;5071489;28;20025;-66
2021/06/29 05:11:57;;;;;;;29.25;21.92;;;;;;;23.52;84.90;100581.59;5071524;28;20530;-67
2021/06/29 05:14:23;;;;;;;32.28;23.90;;;;;;;23.52;85.42;100578.97;5071258;28;20029;-67
2021/06/29 05:16:48;;;;;;;40.42;24.55;;;;;;;23.46;85.65;100570.28;5071283;28;20066;-66
2021/06/29 05:19:14;;;;;;;39.20;23.77;;;;;;;23.46;85.97;100572.94;5053378;28;20051;-66
2021/06/29 05:21:39;;;;;;;31.80;23.25;;;;;;;23.46;85.80;100580.84;5071929;28;20491;-66
2021/06/29 05:24:05;;;;;;;33.15;21.02;;;;;;;23.58;85.14;100580.66;5071457;28;20020;-66
2021/06/29 05:26:32;;;;;;;28.25;20.27;;;;;;;23.66;85.39;100583.16;5071358;28;20037;-66
2021/06/29 05:28:58;;;;;;;30.60;20.98;;;;;;;23.73;84.81;100579.53;5070169;28;20029;-67
2021/06/29 05:31:23;;;;;;;29.98;20.83;;;;;;;23.81;85.45;100587.31;5071429;28;20092;-67
2021/06/29 05:33:49;;;;;;;27.58;19.02;;;;;;;23.95;85.35;100584.47;5071189;28;20025;-64
2021/06/29 05:36:14;;;;;;;25.50;19.13;;;;;;;24.05;84.35;100584.31;5070968;28;20474;-64
2021/06/29 05:38:40;;;;;;;27.73;21.00;;;;;;;24.21;84.37;100581.38;5071005;28;20043;-68
2021/06/29 05:41:05;;;;;;;24.02;18.45;;;;;;;24.28;83.81;100590.94;5070553;28;20029;-65
2021/06/29 05:43:31;;;;;;;19.98;16.67;;;;;;;24.37;82.13;100579.34;5070923;28;20024;-66
2021/06/29 05:45:56;;;;;;;20.60;15.50;;;;;;;24.43;81.18;100571.31;5070951;28;20445;-66
2021/06/29 05:48:23;;;;;;;18.30;14.88;;;;;;;24.50;80.59;100577.34;5059931;28;20028;-67
2021/06/29 05:50:48;;;;;;;24.25;16.00;;;;;;;24.49;80.41;100578.28;5065144;28;20054;-66
2021/06/29 05:53:15;;;;;;;22.45;14.80;;;;;;;24.61;80.11;100579.78;5075815;28;20558;-66
2021/06/29 05:55:40;;;;;;;22.88;14.98;;;;;;;24.51;81.25;100577.34;5070574;28;20036;-66
2021/06/29 05:58:06;;;;;;;22.90;12.77;;;;;;;24.59;79.42;100571.91;5070167;28;20063;-71
2021/06/29 06:00:31;;;;;;;20.02;12.40;;;;;;;24.61;79.33;100580.66;5052273;28;20081;-67
2021/06/29 06:02:57;;;;;;;13.27;10.52;;;;;;;24.76;77.29;100578.63;5070699;28;20078;-67
2021/06/29 06:05:22;;;;;;;17.30;10.00;;;;;;;24.93;76.15;100575.66;5036785;28;20048;-67
2021/06/29 06:07:48;;;;;;;17.40;11.27;;;;;;;24.96;76.40;100576.47;5074572;28;20394;-66
2021/06/29 06:10:14;;;;;;;15.95;9.93;;;;;;;25.04;76.38;100587.72;5074735;28;20098;-68
2021/06/29 06:12:39;;;;;;;16.98;10.45;;;;;;;25.14;74.81;100580.47;5075201;28;20025;-67
2021/06/29 06:15:06;;;;;;;16.20;10.52;;;;;;;25.19;74.53;100577.75;5074404;28;20107;-67
2021/06/29 06:17:37;;;;;;;17.13;10.93;;;;;;;25.21;74.90;100581.22;5074275;28;20078;-65
2021/06/29 06:20:05;;;;;;;14.18;10.43;;;;;;;25.26;75.06;100582.00;5074813;28;20466;-66
2021/06/29 06:22:30;;;;;;;12.63;9.63;;;;;;;25.34;74.28;100579.16;5074536;28;20024;-67
2021/06/29 06:24:56;;;;;;;13.82;9.77;;;;;;;25.43;72.59;100576.34;5056617;28;20017;-67
2021/06/29 06:27:41;;;;;;;13.30;9.93;;;;;;;25.50;72.14;100577.09;5074418;28;20417;-66
2021/06/29 06:30:07;;;;;;;15.23;9.43;;;;;;;25.59;71.55;100573.34;5051916;28;20043;-67
2021/06/29 06:32:33;;;;;;;13.65;10.32;;;;;;;25.64;72.75;100584.69;5052076;28;20048;-67
2021/06/29 06:34:58;;;;;;;14.30;8.82;;;;;;;25.86;70.52;100578.84;5052193;28;20051;-67
2021/06/29 06:37:24;;;;;;;12.88;9.88;;;;;;;25.92;70.89;100562.84;5052185;28;20033;-67
2021/06/29 06:39:50;;;;;;;11.20;9.48;;;;;;;25.88;69.78;100563.81;5052302;28;20037;-66
2021/06/29 06:42:15;;;;;;;13.40;8.90;;;;;;;25.94;70.94;100572.47;5051724;28;20403;-66
2021/06/29 06:44:41;;;;;;;12.85;8.95;;;;;;;26.08;69.13;100574.81;5042573;28;20527;-66
2021/06/29 06:47:07;;;;;;;15.57;8.40;;;;;;;26.25;69.09;100577.00;5031963;28;20033;-66
2021/06/29 06:49:33;;;;;;;13.80;8.65;;;;;;;26.24;68.90;100583.19;5031450;28;20042;-66
2021/06/29 06:51:58;;;;;;;13.30;7.85;;;;;;;26.15;67.74;100579.00;5030855;28;20040;-68
2021/06/29 06:54:24;;;;;;;11.40;7.55;;;;;;;26.27;66.29;100580.47;5031856;28;20029;-68
2021/06/29 06:56:49;;;;;;;10.23;7.90;;;;;;;25.82;67.24;100490.78;5031169;28;20169;-66
2021/06/29 06:59:15;;;;;;;16.65;8.43;;;;;;;26.48;67.64;100556.97;5030906;28;20120;-64
2021/06/29 07:01:41;;;;;;;11.02;7.75;;;;;;;26.54;66.60;100567.38;5047342;28;20048;-68
2021/06/29 07:04:07;;;;;;;16.42;8.10;;;;;;;26.68;65.87;100561.72;5053592;28;20550;-68
2021/06/29 07:06:33;;;;;;;12.52;8.15;;;;;;;26.73;66.76;100574.81;5053798;28;20029;-68
2021/06/29 07:08:59;;;;;;;12.32;8.48;;;;;;;26.74;66.90;100572.19;5053717;28;20025;-67
2021/06/29 07:11:24;;;;;;;12.85;8.05;;;;;;;26.90;65.84;100575.22;5053512;28;20108;-68
2021/06/29 07:13:50;;;;;;;12.13;8.55;;;;;;;26.77;65.57;100574.72;5053379;28;20029;-71
2021/06/29 07:16:19;;;;;;;11.93;8.63;;;;;;;26.74;66.70;100579.22;5051898;28;20029;-68
2021/06/29 07:18:45;;;;;;;;;;;;;;;26.79;65.97;100580.84;5053796;28;20051;-65
2021/06/29 07:21:10;;;;;;;15.40;8.70;;;;;;;26.93;65.97;100579.56;5053487;28;20015;-68
2021/06/29 07:23:36;;;;;;;14.98;9.30;;;;;;;26.93;65.56;100575.16;5052908;28;20025;-67
2021/06/29 07:26:02;;;;;;;13.63;8.70;;;;;;;26.84;65.72;100569.25;5053081;28;20398;-67
2021/06/29 07:28:28;;;;;;;14.27;8.25;;;;;;;26.83;66.38;100572.81;5053015;28;20028;-67
2021/06/29 07:30:54;;;;;;;14.98;8.60;;;;;;;26.95;65.94;100573.34;5034774;28;20041;-69
2021/06/29 07:33:20;;;;;;;11.18;8.57;;;;;;;27.02;65.99;100576.66;5053499;28;20475;-66
2021/06/29 07:35:46;;;;;;;14.32;8.57;;;;;;;27.08;65.42;100583.56;5053344;28;20032;-67
2021/06/29 07:38:13;;;;;;;12.00;8.38;;;;;;;27.18;65.10;100574.41;5053061;28;20103;-69
2021/06/29 07:40:38;;;;;;;16.10;8.32;;;;;;;27.33;64.67;100575.72;5018870;28;20040;-69
2021/06/29 07:43:04;;;;;;;15.65;9.38;;;;;;;27.40;64.96;100569.34;5035302;28;20098;-66
2021/06/29 07:45:31;;;;;;;12.32;8.30;;;;;;;27.53;64.09;100580.44;5069112;28;20075;-69
2021/06/29 07:48:00;;;;;;;10.90;7.95;;;;;;;27.35;63.82;100551.81;5073321;28;20056;-69
2021/06/29 07:50:26;;;;;;;10.52;8.45;;;;;;;27.48;63.82;100574.41;5073236;28;20024;-68
2021/06/29 07:52:52;;;;;;;14.57;8.30;;;;;;;27.64;63.07;100577.44;5072426;28;20056;-68
2021/06/29 07:55:18;;;;;;;14.68;8.77;;;;;;;27.53;63.38;100556.56;5061849;28;20028;-67
2021/06/29 07:57:45;;;;;;;10.68;9.63;;;;;;;27.70;63.62;100574.59;5068580;28;20085;-67
2021/06/29 08:00:12;;;;;;;12.23;9.00;;;;;;;27.80;64.00;100567.16;5072073;28;20082;-68
2021/06/29 08:02:38;;;;;;;17.23;9.07;;;;;;;27.84;64.00;100565.28;5072704;28;20039;-69
2021/06/29 08:05:05;;;;;;;15.98;9.38;;;;;;;27.88;64.27;100565.13;5072640;28;20095;-68
2021/06/29 08:07:30;;;;;;;16.52;8.75;;;;;;;27.84;64.29;100563.50;5072491;28;20036;-68
2021/06/29 08:09:56;;;;;;;13.55;9.13;;;;;;;27.86;63.96;100555.50;5072223;28;20035;-68
2021/06/29 08:12:22;;;;;;;13.70;9.25;;;;;;;27.64;64.75;100521.75;5052970;28;20025;-68
2021/06/29 08:14:48;;;;;;;14.07;10.32;;;;;;;27.90;65.15;100568.63;5052742;28;20035;-68
2021/06/29 08:17:14;;;;;;;13.80;10.00;;;;;;;28.06;64.61;100565.44;5052183;28;20436;-66
2021/06/29 08:19:39;;;;;;;12.68;9.15;;;;;;;28.15;65.16;100554.53;5034736;28;20020;-68
2021/06/29 08:22:05;;;;;;;12.52;9.65;;;;;;;28.41;64.88;100553.59;5052406;28;20025;-68
2021/06/29 08:24:31;;;;;;;19.75;9.75;;;;;;;28.49;63.57;100560.44;5034552;28;20029;-67
2021/06/29 08:26:57;;;;;;;13.30;9.20;;;;;;;28.52;63.01;100560.31;5052230;28;20074;-66
2021/06/29 08:29:22;;;;;;;12.20;8.40;;;;;;;28.55;62.53;100562.88;5052058;28;20171;-66
2021/06/29 08:31:48;;;;;;;14.27;9.25;;;;;;;28.57;63.08;100550.38;5052034;28;20108;-68
2021/06/29 08:34:14;;;;;;;17.65;9.10;;;;;;;28.66;63.74;100558.03;5054103;28;20482;-67
2021/06/29 08:36:43;;;;;;;17.70;8.70;;;;;;;28.67;61.48;100545.59;5054324;28;20025;-67
2021/06/29 08:39:14;;;;;;;14.20;8.57;;;;;;;28.74;61.73;100549.78;5060724;28;20028;-71
2021/06/29 08:41:44;;;;;;;13.20;7.88;;;;;;;28.82;59.66;100538.88;5058397;28;20061;-68
2021/06/29 08:44:11;;;;;;;17.08;7.90;;;;;;;28.97;59.93;100548.03;5069406;28;20422;-67
2021/06/29 08:46:36;;;;;;;17.88;11.45;;;;;;;28.93;60.88;100538.47;5071780;28;20025;-67
2021/06/29 08:49:06;;;;;;;19.33;14.55;;;;;;;29.09;60.89;100539.59;5065009;28;20031;-66
2021/06/29 08:51:32;;;;;;;11.85;8.88;;;;;;;29.11;60.26;100543.06;5062390;28;20055;-68
2021/06/29 08:53:57;;;;;;;12.45;7.97;;;;;;;29.29;58.51;100545.94;5070821;28;20081;-68
2021/06/29 08:56:23;;;;;;;11.07;8.40;;;;;;;29.33;58.73;100532.44;5071551;28;20024;-72
2021/06/29 08:58:49;;;;;;;11.77;7.03;;;;;;;29.57;55.29;100536.84;5071474;28;20141;-66
2021/06/29 09:01:15;;;;;;;12.77;7.30;;;;;;;29.65;56.63;100534.72;5053626;28;20036;-67
2021/06/29 09:03:44;;;;;;;10.88;6.85;;;;;;;29.66;56.37;100528.47;5063644;28;20024;-68
2021/06/29 09:06:10;;;;;;;9.05;7.10;;;;;;;29.74;55.96;100526.34;5068016;28;20054;-68
2021/06/29 09:08:40;;;;;;;13.15;7.97;;;;;;;29.51;57.16;100501.59;5070146;28;20032;-68
2021/06/29 09:11:17;;;;;;;13.63;6.95;;;;;;;29.79;55.39;100518.19;5069299;28;20036;-67
2021/06/29 09:14:01;;;;;;;12.05;6.93;;;;;;;29.84;54.96;100489.56;5061515;28;20135;-67
2021/06/29 09:16:27;;;;;;;9.20;6.97;;;;;;;29.97;56.76;100512.09;5063369;28;20025;-68
2021/06/29 09:18:53;;;;;;;12.30;7.40;;;;;;;30.01;54.94;100515.50;5037925;28;20033;-68
2021/06/29 09:21:18;;;;;;;10.10;6.63;;;;;;;30.14;54.35;100505.16;5067114;28;20028;-66
2021/06/29 09:23:50;;;;;;;10.20;6.95;;;;;;;29.96;55.37;100469.59;5066722;28;20028;-70
2021/06/29 09:26:23;;;;;;;10.93;6.50;;;;;;;30.23;53.76;100495.88;5069300;28;20032;-68
2021/06/29 09:29:01;;;;;;;13.10;7.30;;;;;;;30.35;53.55;100492.69;5069993;28;20516;-69
2021/06/29 09:31:32;;;;;;;10.07;6.50;;;;;;;30.50;54.42;100499.13;5070841;28;20028;-68
2021/06/29 09:34:07;;;;;;;11.95;6.78;;;;;;;30.66;53.95;100501.97;5071176;28;20092;-65
2021/06/29 09:36:36;;;;;;;11.30;6.82;;;;;;;30.58;53.74;100490.78;5068304;28;20039;-66
2021/06/29 09:39:12;;;;;;;9.93;6.55;;;;;;;30.78;53.35;100493.38;5057530;28;20491;-67
2021/06/29 09:41:38;;;;;;;9.57;6.93;;;;;;;30.94;55.05;100489.97;5036527;28;20191;-65
2021/06/29 09:44:10;;;;;;;12.63;7.57;;;;;;;30.97;53.79;100485.38;5055476;28;20534;-65
2021/06/29 09:46:37;;;;;;;10.45;6.82;;;;;;;31.02;53.03;100484.28;5055464;28;20036;-67
2021/06/29 09:49:12;;;;;;;11.38;6.05;;;;;;;30.85;51.13;100485.94;5055026;28;20154;-68
2021/06/29 09:51:39;;;;;;;10.60;7.07;;;;;;;31.10;50.84;100484.81;5054918;28;20033;-65
2021/06/29 09:54:08;;;;;;;11.60;5.70;;;;;;;31.32;49.23;100465.06;5055578;28;20079;-70
2021/06/29 09:56:40;;;;;;;10.23;7.85;;;;;;;31.44;52.43;100470.66;5048784;28;20111;-71
2021/06/29 09:59:14;;;;;;;10.40;5.47;;;;;;;31.38;50.06;100472.75;5072976;28;20035;-70
2021/06/29 10:01:40;;;;;;;7.97;5.53;;;;;;;31.51;48.92;100476.53;5072132;28;20490;-71
2021/06/29 10:04:07;;;;;;;10.05;5.75;;;;;;;31.68;48.00;100473.06;5072711;28;20051;-70
2021/06/29 10:06:34;;;;;;;8.25;5.18;;;;;;;31.69;46.59;100471.22;5073262;28;20073;-70
2021/06/29 10:09:16;;;;;;;8.10;5.13;;;;;;;31.65;46.40;100430.50;5074135;28;20095;-69
2021/06/29 10:11:41;;;;;;;8.10;5.28;;;;;;;31.99;45.58;100460.78;5073704;28;20032;-66
2021/06/29 10:14:15;;;;;;;5.90;4.60;;;;;;;31.95;45.78;100459.19;5074185;28;20529;-68
2021/06/29 10:16:43;;;;;;;8.27;5.22;;;;;;;31.75;46.13;100422.88;5074015;28;20040;-68
2021/06/29 10:21:45;;;;;;;9.23;5.35;;;;;;;32.14;44.34;100429.72;5073633;28;20135;-69
2021/06/29 10:24:13;;;;;;;7.55;5.40;;;;;;;32.40;44.00;100435.44;5072714;28;20032;-67
2021/06/29 10:26:41;;;;;;;9.80;5.33;;;;;;;32.39;44.22;100434.59;5073301;28;20032;-66
2021/06/29 10:29:09;;;;;;;6.30;4.38;;;;;;;32.48;43.67;100432.38;5029210;28;20351;-68
2021/06/29 10:31:47;;;;;;;7.38;4.45;;;;;;;32.31;43.72;100434.16;5029953;28;20037;-68
2021/06/29 10:34:13;;;;;;;8.63;5.50;;;;;;;32.44;44.25;100439.69;5031196;28;20095;-67
2021/06/29 10:36:45;;;;;;;10.27;4.97;;;;;;;32.54;42.70;100442.72;5031453;28;20029;-69
2021/06/29 10:39:13;;;;;;;7.15;5.05;;;;;;;32.77;43.84;100436.09;5030238;28;20038;-73
2021/06/29 10:42:01;;;;;;;12.60;5.30;;;;;;;33.03;40.37;100429.25;4991462;28;20050;-74
2021/06/29 10:44:28;;;;;;;7.65;4.82;;;;;;;33.22;41.32;100430.84;4991579;28;20049;-72
2021/06/29 10:46:55;;;;;;;11.15;4.78;;;;;;;33.30;40.85;100423.28;4991949;28;20073;-73
2021/06/29 10:49:42;;;;;;;10.35;5.18;;;;;;;33.47;42.30;100424.97;4975462;28;20091;-73
2021/06/29 10:52:27;;;;;;;7.88;4.43;;;;;;;33.84;40.17;100419.19;4992283;28;20026;-72
2021/06/29 10:54:55;;;;;;;10.82;5.10;;;;;;;33.85;40.67;100423.59;4991519;28;20420;-71
2021/06/29 10:57:25;;;;;;;6.45;4.80;;;;;;;33.74;40.42;100409.97;4990399;28;20033;-73
2021/06/29 10:59:55;;;;;;;9.40;5.85;;;;;;;33.35;41.96;100399.78;5000030;28;20507;-72
2021/06/29 11:02:36;;;;;;;7.95;4.93;;;;;;;33.79;40.13;100413.22;5023671;28;20495;-73
2021/06/29 11:05:10;;;;;;;7.38;4.95;;;;;;;33.77;39.61;100375.84;5009362;28;20423;-72
2021/06/29 11:07:36;;;;;;;8.38;5.28;;;;;;;34.15;39.49;100403.88;5031133;28;20149;-72
2021/06/29 11:10:11;;;;;;;7.05;4.60;;;;;;;34.28;38.00;100396.78;5031517;28;20044;-73
2021/06/29 11:12:53;;;;;;;12.27;5.07;;;;;;;34.13;40.67;100392.41;5031226;28;20037;-71
2021/06/29 11:15:39;;;;;;;7.43;5.47;;;;;;;34.18;38.84;100387.59;5030532;28;20041;-74
2021/06/29 11:18:05;;;;;;;6.75;4.63;;;;;;;33.26;38.75;100378.91;5029863;28;20040;-70
2021/06/29 11:20:42;;;;;;;6.32;4.55;;;;;;;33.97;38.78;100388.03;5070337;28;20041;-72